createdAt,value
2022-12-26T00:00:18.070Z,9.358532
2022-12-26T00:01:18.024Z,9.358586
2022-12-26T00:02:18.014Z,9.358535
2022-12-26T00:03:18.104Z,9.358556
2022-12-26T00:04:49.675Z,9.358563
2022-12-26T00:05:18.969Z,9.358574
2022-12-26T00:06:17.970Z,9.358577
2022-12-26T00:07:17.910Z,9.358561
2022-12-26T00:08:17.947Z,9.358604
2022-12-26T00:09:17.934Z,9.358559
2022-12-26T00:10:17.910Z,9.358559
2022-12-26T00:11:17.905Z,9.358530
2022-12-26T00:12:17.919Z,9.358577
2022-12-26T00:13:39.122Z,9.358656
2022-12-26T00:14:18.853Z,9.358603
2022-12-26T00:15:17.874Z,9.358573
2022-12-26T00:16:17.900Z,9.358592
2022-12-26T00:17:17.849Z,9.358529
2022-12-26T00:18:17.848Z,9.358516
2022-12-26T00:19:17.813Z,9.358501
2022-12-26T00:20:17.791Z,9.358563
2022-12-26T00:21:17.769Z,9.358608
2022-12-26T00:22:17.803Z,9.358606
2022-12-26T00:23:17.743Z,9.358585
2022-12-26T00:24:17.759Z,9.358570
2022-12-26T00:25:17.767Z,9.358525
2022-12-26T00:26:17.723Z,9.358446
2022-12-26T00:27:17.718Z,9.358438
2022-12-26T00:28:17.738Z,9.358448
2022-12-26T00:29:17.702Z,9.358508
2022-12-26T00:30:17.671Z,9.358538
2022-12-26T00:31:17.797Z,9.358509
2022-12-26T00:32:17.674Z,9.358492
2022-12-26T00:33:17.652Z,9.358512
2022-12-26T00:34:17.689Z,9.358642
2022-12-26T00:35:17.641Z,9.358603
2022-12-26T00:36:17.622Z,9.358510
2022-12-26T00:37:17.630Z,9.358481
2022-12-26T00:38:17.608Z,9.358521
2022-12-26T00:39:17.598Z,9.358667
2022-12-26T00:40:17.548Z,9.358582
2022-12-26T00:41:17.567Z,9.358513
2022-12-26T00:42:17.584Z,9.358470
2022-12-26T00:43:17.575Z,9.358498
2022-12-26T00:44:17.520Z,9.358641
2022-12-26T00:45:17.521Z,9.358688
2022-12-26T00:46:17.555Z,9.358655
2022-12-26T00:47:17.527Z,9.358598
2022-12-26T00:48:17.513Z,9.358484
2022-12-26T00:49:17.478Z,9.358564
2022-12-26T00:50:17.445Z,9.358612
2022-12-26T00:51:17.486Z,9.358540
2022-12-26T00:52:17.470Z,9.358557
2022-12-26T00:53:17.438Z,9.358568
2022-12-26T00:54:17.444Z,9.358613
2022-12-26T00:55:17.424Z,9.358560
2022-12-26T00:56:17.401Z,9.358570
2022-12-26T00:57:17.394Z,9.358582
2022-12-26T00:58:17.386Z,9.358531
2022-12-26T00:59:17.372Z,9.358553
2022-12-26T01:00:17.353Z,9.358597
2022-12-26T01:01:17.536Z,9.358606
2022-12-26T01:02:17.532Z,9.358557
2022-12-26T01:03:17.394Z,9.358515
2022-12-26T01:04:17.332Z,9.358473
2022-12-26T01:05:17.295Z,9.358489
2022-12-26T01:06:17.288Z,9.358501
2022-12-26T01:07:17.271Z,9.358535
2022-12-26T01:08:22.122Z,9.358454
2022-12-26T01:09:18.270Z,9.358469
2022-12-26T01:10:17.223Z,9.358498
2022-12-26T01:11:17.239Z,9.358514
2022-12-26T01:12:17.243Z,9.358498
2022-12-26T01:13:17.231Z,9.358493
2022-12-26T01:14:17.176Z,9.358454
2022-12-26T01:15:17.185Z,9.358480
2022-12-26T01:16:17.248Z,9.358514
2022-12-26T01:17:17.170Z,9.358534
2022-12-26T01:18:17.141Z,9.358534
2022-12-26T01:19:17.144Z,9.358541
2022-12-26T01:20:17.119Z,9.358586
2022-12-26T01:21:17.125Z,9.358554
2022-12-26T01:22:17.150Z,9.358526
2022-12-26T01:23:17.126Z,9.358527
2022-12-26T01:24:17.089Z,9.358509
2022-12-26T01:25:17.061Z,9.358512
2022-12-26T01:26:20.256Z,9.358477
2022-12-26T01:27:18.052Z,9.358418
2022-12-26T01:28:17.069Z,9.358403
2022-12-26T01:29:17.026Z,9.358415
2022-12-26T01:30:17.043Z,9.358454
2022-12-26T01:31:17.083Z,9.358421
2022-12-26T01:32:17.028Z,9.358378
2022-12-26T01:33:17.040Z,9.358420
2022-12-26T01:34:16.953Z,9.358441
2022-12-26T01:35:17.039Z,9.358486
2022-12-26T01:36:16.976Z,9.358543
2022-12-26T01:37:16.941Z,9.358526
2022-12-26T01:38:16.936Z,9.358377
2022-12-26T01:39:16.917Z,9.358526
2022-12-26T01:40:16.915Z,9.358513
2022-12-26T01:41:17.139Z,9.358500
2022-12-26T01:42:16.899Z,9.358477
2022-12-26T01:43:17.866Z,9.358504
2022-12-26T01:44:16.844Z,9.358464
2022-12-26T01:45:16.845Z,9.358455
2022-12-26T01:46:16.917Z,9.358473
2022-12-26T01:47:16.840Z,9.358443
2022-12-26T01:48:16.809Z,9.358495
2022-12-26T01:49:16.788Z,9.358532
2022-12-26T01:50:16.818Z,9.358521
2022-12-26T01:51:16.767Z,9.358496
2022-12-26T01:52:16.775Z,9.358463
2022-12-26T01:53:16.752Z,9.358440
2022-12-26T01:54:39.811Z,9.358520
2022-12-26T01:55:17.734Z,9.358499
2022-12-26T01:56:16.729Z,9.358454
2022-12-26T01:57:16.756Z,9.358447
2022-12-26T01:58:16.684Z,9.358448
2022-12-26T01:59:16.751Z,9.358425
2022-12-26T02:00:16.682Z,9.358358
2022-12-26T02:01:16.774Z,9.358433
2022-12-26T02:02:16.888Z,9.358520
2022-12-26T02:03:16.697Z,9.358521
2022-12-26T02:04:16.620Z,9.358532
2022-12-26T02:05:17.620Z,9.358554
2022-12-26T02:06:16.640Z,9.358582
2022-12-26T02:07:16.591Z,9.358472
2022-12-26T02:08:16.600Z,9.358529
2022-12-26T02:09:16.596Z,9.358533
2022-12-26T02:10:16.554Z,9.358478
2022-12-26T02:11:16.551Z,9.358470
2022-12-26T02:12:35.106Z,9.358546
2022-12-26T02:13:17.524Z,9.358554
2022-12-26T02:14:16.516Z,9.358569
2022-12-26T02:15:16.546Z,9.358571
2022-12-26T02:16:16.510Z,9.358588
2022-12-26T02:17:16.485Z,9.358587
2022-12-26T02:18:16.482Z,9.358621
2022-12-26T02:19:16.459Z,9.358611
2022-12-26T02:20:16.450Z,9.358615
2022-12-26T02:21:16.441Z,9.358657
2022-12-26T02:22:16.443Z,9.358559
2022-12-26T02:23:16.397Z,9.358539
2022-12-26T02:24:16.433Z,9.358514
2022-12-26T02:25:16.422Z,9.358528
2022-12-26T02:26:17.362Z,9.358554
2022-12-26T02:27:16.385Z,9.358568
2022-12-26T02:28:16.376Z,9.358613
2022-12-26T02:29:16.342Z,9.358601
2022-12-26T02:30:16.347Z,9.358583
2022-12-26T02:31:16.369Z,9.358585
2022-12-26T02:32:16.450Z,9.358563
2022-12-26T02:33:16.331Z,9.358584
2022-12-26T02:34:16.317Z,9.358581
2022-12-26T02:35:16.277Z,9.358609
2022-12-26T02:36:16.251Z,9.358585
2022-12-26T02:37:16.256Z,9.358603
2022-12-26T02:38:17.263Z,9.358534
2022-12-26T02:39:43.756Z,9.358536
2022-12-26T02:40:17.231Z,9.358566
2022-12-26T02:41:16.211Z,9.358541
2022-12-26T02:42:16.199Z,9.358631
2022-12-26T02:43:16.192Z,9.358599
2022-12-26T02:44:16.202Z,9.358573
2022-12-26T02:45:16.170Z,9.358554
2022-12-26T02:46:16.285Z,9.358487
2022-12-26T02:47:16.135Z,9.358500
2022-12-26T02:48:16.168Z,9.358524
2022-12-26T02:49:16.123Z,9.358552
2022-12-26T02:50:16.103Z,9.358562
2022-12-26T02:51:16.109Z,9.358634
2022-12-26T02:52:16.126Z,9.358658
2022-12-26T02:53:16.103Z,9.358659
2022-12-26T02:54:16.049Z,9.358623
2022-12-26T02:55:16.067Z,9.358587
2022-12-26T02:56:16.030Z,9.358603
2022-12-26T02:57:16.047Z,9.358559
2022-12-26T02:58:16.043Z,9.358543
2022-12-26T02:59:16.015Z,9.358554
2022-12-26T03:00:15.991Z,9.358604
2022-12-26T03:01:16.137Z,9.358571
2022-12-26T03:02:16.172Z,9.358609
2022-12-26T03:03:16.015Z,9.358601
2022-12-26T03:04:15.995Z,9.358567
2022-12-26T03:05:15.944Z,9.358528
2022-12-26T03:06:15.935Z,9.358560
2022-12-26T03:07:15.914Z,9.358618
2022-12-26T03:08:15.940Z,9.358583
2022-12-26T03:09:15.901Z,9.358589
2022-12-26T03:10:15.864Z,9.358605
2022-12-26T03:11:15.894Z,9.358588
2022-12-26T03:12:15.849Z,9.358544
2022-12-26T03:13:15.866Z,9.358590
2022-12-26T03:14:15.853Z,9.358624
2022-12-26T03:15:15.846Z,9.358610
2022-12-26T03:16:15.835Z,9.358634
2022-12-26T03:17:15.808Z,9.358511
2022-12-26T03:18:15.814Z,9.358543
2022-12-26T03:19:15.790Z,9.358562
2022-12-26T03:20:15.765Z,9.358518
2022-12-26T03:21:15.757Z,9.358531
2022-12-26T03:22:15.758Z,9.358594
2022-12-26T03:23:15.759Z,9.358512
2022-12-26T03:24:15.727Z,9.358506
2022-12-26T03:25:15.717Z,9.358431
2022-12-26T03:26:15.723Z,9.358453
2022-12-26T03:27:15.687Z,9.358513
2022-12-26T03:28:15.712Z,9.358555
2022-12-26T03:29:18.840Z,9.358521
2022-12-26T03:30:16.675Z,9.358494
2022-12-26T03:31:15.740Z,9.358462
2022-12-26T03:32:15.643Z,9.358480
2022-12-26T03:33:16.633Z,9.358491
2022-12-26T03:34:15.608Z,9.358509
2022-12-26T03:35:15.619Z,9.358525
2022-12-26T03:36:15.613Z,9.358495
2022-12-26T03:37:15.571Z,9.358510
2022-12-26T03:38:15.600Z,9.358567
2022-12-26T03:39:15.557Z,9.358547
2022-12-26T03:40:15.546Z,9.358469
2022-12-26T03:41:15.533Z,9.358501
2022-12-26T03:42:15.577Z,9.358568
2022-12-26T03:43:15.538Z,9.358506
2022-12-26T03:44:15.531Z,9.358516
2022-12-26T03:45:15.496Z,9.358513
2022-12-26T03:46:15.589Z,9.358571
2022-12-26T03:47:15.469Z,9.358580
2022-12-26T03:48:15.513Z,9.358560
2022-12-26T03:49:15.459Z,9.358540
2022-12-26T03:50:15.416Z,9.358541
2022-12-26T03:51:15.421Z,9.358514
2022-12-26T03:52:15.440Z,9.358495
2022-12-26T03:53:15.425Z,9.358549
2022-12-26T03:54:15.379Z,9.358563
2022-12-26T03:55:15.379Z,9.358533
2022-12-26T03:56:15.400Z,9.358504
2022-12-26T03:57:15.434Z,9.358506
2022-12-26T03:58:15.335Z,9.358538
2022-12-26T03:59:15.396Z,9.358564
2022-12-26T04:00:15.294Z,9.358592
2022-12-26T04:01:15.573Z,9.358611
2022-12-26T04:02:15.522Z,9.358543
2022-12-26T04:03:15.315Z,9.358583
2022-12-26T04:04:15.275Z,9.358657
2022-12-26T04:05:15.275Z,9.358638
2022-12-26T04:06:15.276Z,9.358600
2022-12-26T04:07:15.233Z,9.358563
2022-12-26T04:08:18.908Z,9.358541
2022-12-26T04:09:16.225Z,9.358560
2022-12-26T04:10:15.219Z,9.358582
2022-12-26T04:11:15.225Z,9.358585
2022-12-26T04:12:15.211Z,9.358567
2022-12-26T04:13:15.194Z,9.358521
2022-12-26T04:14:15.168Z,9.358505
2022-12-26T04:15:15.178Z,9.358500
2022-12-26T04:16:15.277Z,9.358592
2022-12-26T04:17:15.176Z,9.358556
2022-12-26T04:18:15.145Z,9.358562
2022-12-26T04:19:15.108Z,9.358544
2022-12-26T04:20:15.089Z,9.358541
2022-12-26T04:21:15.077Z,9.358530
2022-12-26T04:22:15.088Z,9.358565
2022-12-26T04:23:15.063Z,9.358567
2022-12-26T04:24:15.081Z,9.358534
2022-12-26T04:25:15.058Z,9.358459
2022-12-26T04:26:15.024Z,9.358450
2022-12-26T04:27:15.038Z,9.358499
2022-12-26T04:28:15.034Z,9.358485
2022-12-26T04:29:15.000Z,9.358535
2022-12-26T04:30:15.009Z,9.358557
2022-12-26T04:31:16.035Z,9.358564
2022-12-26T04:32:14.940Z,9.358543
2022-12-26T04:33:14.941Z,9.358549
2022-12-26T04:34:14.945Z,9.358546
2022-12-26T04:35:14.951Z,9.358599
2022-12-26T04:36:14.895Z,9.358604
2022-12-26T04:37:14.899Z,9.358566
2022-12-26T04:38:14.923Z,9.358518
2022-12-26T04:39:14.857Z,9.358529
2022-12-26T04:40:14.904Z,9.358602
2022-12-26T04:41:14.875Z,9.358639
2022-12-26T04:42:14.824Z,9.358645
2022-12-26T04:43:49.087Z,9.358656
2022-12-26T04:44:15.868Z,9.358618
2022-12-26T04:45:14.817Z,9.358617
2022-12-26T04:46:14.831Z,9.358607
2022-12-26T04:47:14.841Z,9.358584
2022-12-26T04:48:14.764Z,9.358546
2022-12-26T04:49:14.797Z,9.358598
2022-12-26T04:50:14.791Z,9.358553
2022-12-26T04:51:14.741Z,9.358509
2022-12-26T04:52:14.712Z,9.358504
2022-12-26T04:53:14.771Z,9.358522
2022-12-26T04:54:14.737Z,9.358556
2022-12-26T04:55:14.709Z,9.358535
2022-12-26T04:56:14.678Z,9.358601
2022-12-26T04:57:14.661Z,9.358679
2022-12-26T04:58:14.678Z,9.358706
2022-12-26T04:59:14.665Z,9.358673
2022-12-26T05:00:14.636Z,9.358579
2022-12-26T05:01:14.753Z,9.358591
2022-12-26T05:02:14.768Z,9.358640
2022-12-26T05:03:18.658Z,9.358647
2022-12-26T05:04:15.600Z,9.358672
2022-12-26T05:05:14.609Z,9.358541
2022-12-26T05:06:14.557Z,9.358525
2022-12-26T05:07:14.570Z,9.358508
2022-12-26T05:08:14.560Z,9.358549
2022-12-26T05:09:14.527Z,9.358602
2022-12-26T05:10:14.505Z,9.358566
2022-12-26T05:11:14.529Z,9.358578
2022-12-26T05:12:14.500Z,9.358517
2022-12-26T05:13:14.490Z,9.358589
2022-12-26T05:14:14.485Z,9.358612
2022-12-26T05:15:14.479Z,9.358578
2022-12-26T05:16:14.581Z,9.358597
2022-12-26T05:17:14.457Z,9.358644
2022-12-26T05:18:14.472Z,9.358619
2022-12-26T05:19:14.417Z,9.358551
2022-12-26T05:20:14.439Z,9.358475
2022-12-26T05:21:14.425Z,9.358446
2022-12-26T05:22:14.380Z,9.358476
2022-12-26T05:23:14.393Z,9.358500
2022-12-26T05:24:14.419Z,9.358520
2022-12-26T05:25:14.359Z,9.358531
2022-12-26T05:26:14.356Z,9.358529
2022-12-26T05:27:14.332Z,9.358502
2022-12-26T05:28:14.330Z,9.358494
2022-12-26T05:29:14.316Z,9.358550
2022-12-26T05:30:14.286Z,9.358583
2022-12-26T05:31:14.394Z,9.358550
2022-12-26T05:32:14.295Z,9.358595
2022-12-26T05:33:14.279Z,9.358624
2022-12-26T05:34:14.242Z,9.358596
2022-12-26T05:35:14.253Z,9.358562
2022-12-26T05:36:14.230Z,9.358545
2022-12-26T05:37:14.209Z,9.358561
2022-12-26T05:38:14.214Z,9.358597
2022-12-26T05:39:14.219Z,9.358627
2022-12-26T05:40:14.180Z,9.358588
2022-12-26T05:41:14.184Z,9.358494
2022-12-26T05:42:14.180Z,9.358463
2022-12-26T05:43:14.148Z,9.358554
2022-12-26T05:44:14.161Z,9.358593
2022-12-26T05:45:14.162Z,9.358581
2022-12-26T05:46:14.246Z,9.358527
2022-12-26T05:47:14.122Z,9.358540
2022-12-26T05:48:14.130Z,9.358570
2022-12-26T05:49:14.109Z,9.358568
2022-12-26T05:50:14.065Z,9.358483
2022-12-26T05:51:14.109Z,9.358513
2022-12-26T05:52:14.047Z,9.358552
2022-12-26T05:53:14.040Z,9.358564
2022-12-26T05:54:14.055Z,9.358599
2022-12-26T05:55:14.020Z,9.358636
2022-12-26T05:56:14.027Z,9.358631
2022-12-26T05:57:14.004Z,9.358543
2022-12-26T05:58:14.006Z,9.358616
2022-12-26T05:59:13.987Z,9.358568
2022-12-26T06:00:13.947Z,9.358616
2022-12-26T06:01:14.043Z,9.358561
2022-12-26T06:02:14.057Z,9.358560
2022-12-26T06:03:13.998Z,9.358562
2022-12-26T06:04:13.917Z,9.358558
2022-12-26T06:05:13.916Z,9.358552
2022-12-26T06:06:13.931Z,9.358552
2022-12-26T06:07:13.889Z,9.358531
2022-12-26T06:08:13.885Z,9.358501
2022-12-26T06:09:13.864Z,9.358569
2022-12-26T06:10:13.875Z,9.358623
2022-12-26T06:11:13.839Z,9.358665
2022-12-26T06:12:13.865Z,9.358581
2022-12-26T06:13:13.836Z,9.358644
2022-12-26T06:14:13.781Z,9.358617
2022-12-26T06:15:13.828Z,9.358592
2022-12-26T06:16:13.778Z,9.358574
2022-12-26T06:17:13.762Z,9.358590
2022-12-26T06:18:13.768Z,9.358578
2022-12-26T06:19:13.757Z,9.358556
2022-12-26T06:20:13.723Z,9.358557
2022-12-26T06:21:13.733Z,9.358508
2022-12-26T06:22:13.739Z,9.358516
2022-12-26T06:23:13.683Z,9.358542
2022-12-26T06:24:13.715Z,9.358522
2022-12-26T06:25:13.764Z,9.358559
2022-12-26T06:26:13.676Z,9.358516
2022-12-26T06:27:13.660Z,9.358570
2022-12-26T06:28:13.672Z,9.358470
2022-12-26T06:29:13.634Z,9.358588
2022-12-26T06:30:13.600Z,9.358624
2022-12-26T06:31:13.639Z,9.358575
2022-12-26T06:32:13.611Z,9.358532
2022-12-26T06:33:13.611Z,9.358594
2022-12-26T06:34:13.552Z,9.358559
2022-12-26T06:35:13.564Z,9.358577
2022-12-26T06:36:13.574Z,9.358582
2022-12-26T06:37:13.562Z,9.358610
2022-12-26T06:38:13.505Z,9.358561
2022-12-26T06:39:13.529Z,9.358539
2022-12-26T06:40:13.493Z,9.358532
2022-12-26T06:41:13.510Z,9.358520
2022-12-26T06:42:13.517Z,9.358539
2022-12-26T06:43:13.488Z,9.358549
2022-12-26T06:44:18.084Z,9.358590
2022-12-26T06:45:15.446Z,9.358479
2022-12-26T06:46:13.605Z,9.358509
2022-12-26T06:47:13.476Z,9.358560
2022-12-26T06:48:13.436Z,9.358516
2022-12-26T06:49:13.409Z,9.358621
2022-12-26T06:50:13.384Z,9.358560
2022-12-26T06:51:13.390Z,9.358597
2022-12-26T06:52:13.388Z,9.358523
2022-12-26T06:53:13.374Z,9.358489
2022-12-26T06:54:13.341Z,9.358528
2022-12-26T06:55:13.376Z,9.358533
2022-12-26T06:56:13.327Z,9.358543
2022-12-26T06:57:13.311Z,9.358525
2022-12-26T06:58:13.333Z,9.358478
2022-12-26T06:59:13.299Z,9.358616
2022-12-26T07:00:13.262Z,9.358659
2022-12-26T07:01:13.359Z,9.358715
2022-12-26T07:02:13.387Z,9.358680
2022-12-26T07:03:13.305Z,9.358598
2022-12-26T07:04:13.223Z,9.358586
2022-12-26T07:05:13.222Z,9.358556
2022-12-26T07:06:13.228Z,9.358636
2022-12-26T07:07:13.209Z,9.358603
2022-12-26T07:08:13.186Z,9.358618
2022-12-26T07:09:13.198Z,9.358582
2022-12-26T07:10:13.194Z,9.358579
2022-12-26T07:11:13.132Z,9.358591
2022-12-26T07:12:13.155Z,9.358500
2022-12-26T07:13:13.161Z,9.358543
2022-12-26T07:14:13.094Z,9.358597
2022-12-26T07:15:13.101Z,9.358709
2022-12-26T07:16:13.149Z,9.358609
2022-12-26T07:17:14.090Z,9.358612
2022-12-26T07:18:13.062Z,9.358583
2022-12-26T07:19:13.089Z,9.358574
2022-12-26T07:20:13.029Z,9.358586
2022-12-26T07:21:13.032Z,9.358599
2022-12-26T07:22:13.066Z,9.358546
2022-12-26T07:23:13.010Z,9.358546
2022-12-26T07:24:12.989Z,9.358500
2022-12-26T07:25:12.984Z,9.358540
2022-12-26T07:26:13.010Z,9.358591
2022-12-26T07:27:12.965Z,9.358607
2022-12-26T07:28:12.972Z,9.358538
2022-12-26T07:29:12.943Z,9.358484
2022-12-26T07:30:12.914Z,9.358598
2022-12-26T07:31:12.959Z,9.358648
2022-12-26T07:32:12.972Z,9.358621
2022-12-26T07:33:12.899Z,9.358493
2022-12-26T07:34:12.876Z,9.358506
2022-12-26T07:35:12.889Z,9.358478
2022-12-26T07:36:12.894Z,9.358486
2022-12-26T07:37:12.891Z,9.358601
2022-12-26T07:38:12.844Z,9.358643
2022-12-26T07:39:12.886Z,9.358622
2022-12-26T07:40:12.852Z,9.358540
2022-12-26T07:41:12.811Z,9.358550
2022-12-26T07:42:12.803Z,9.358513
2022-12-26T07:43:12.823Z,9.358558
2022-12-26T07:44:12.783Z,9.358580
2022-12-26T07:45:12.776Z,9.358569
2022-12-26T07:46:12.865Z,9.358504
2022-12-26T07:47:12.754Z,9.358483
2022-12-26T07:48:12.734Z,9.358480
2022-12-26T07:49:12.725Z,9.358634
2022-12-26T07:50:12.741Z,9.358592
2022-12-26T07:51:12.680Z,9.358574
2022-12-26T07:52:12.715Z,9.358572
2022-12-26T07:53:12.690Z,9.358506
2022-12-26T07:54:12.675Z,9.358545
2022-12-26T07:55:12.661Z,9.358552
2022-12-26T07:56:12.751Z,9.358520
2022-12-26T07:57:46.805Z,9.358506
2022-12-26T07:58:14.622Z,9.358509
2022-12-26T07:59:12.629Z,9.358614
2022-12-26T08:00:12.579Z,9.358624
2022-12-26T08:01:13.679Z,9.358585
2022-12-26T08:02:12.713Z,9.358570
2022-12-26T08:03:12.777Z,9.358657
2022-12-26T08:04:12.536Z,9.358698
2022-12-26T08:05:12.553Z,9.358617
2022-12-26T08:06:12.574Z,9.358521
2022-12-26T08:07:12.549Z,9.358541
2022-12-26T08:08:12.510Z,9.358447
2022-12-26T08:09:12.507Z,9.358428
2022-12-26T08:10:12.519Z,9.358459
2022-12-26T08:11:12.502Z,9.358569
2022-12-26T08:12:12.549Z,9.358549
2022-12-26T08:13:12.459Z,9.358575
2022-12-26T08:14:12.471Z,9.358550
2022-12-26T08:15:12.455Z,9.358528
2022-12-26T08:16:12.482Z,9.358501
2022-12-26T08:17:12.491Z,9.358554
2022-12-26T08:18:12.391Z,9.358599
2022-12-26T08:19:12.403Z,9.358624
2022-12-26T08:20:12.434Z,9.358581
2022-12-26T08:21:12.392Z,9.358644
2022-12-26T08:22:12.358Z,9.358625
2022-12-26T08:23:12.387Z,9.358673
2022-12-26T08:24:12.354Z,9.358582
2022-12-26T08:25:13.398Z,9.358607
2022-12-26T08:26:12.343Z,9.358616
2022-12-26T08:27:12.318Z,9.358672
2022-12-26T08:28:12.280Z,9.358640
2022-12-26T08:29:12.293Z,9.358710
2022-12-26T08:30:12.308Z,9.358608
2022-12-26T08:31:12.291Z,9.358583
2022-12-26T08:32:12.282Z,9.358627
2022-12-26T08:33:12.252Z,9.358642
2022-12-26T08:34:12.242Z,9.358604
2022-12-26T08:35:12.239Z,9.358598
2022-12-26T08:36:12.251Z,9.358622
2022-12-26T08:37:12.224Z,9.358688
2022-12-26T08:38:12.202Z,9.358593
2022-12-26T08:39:12.196Z,9.358665
2022-12-26T08:40:12.902Z,9.358700
2022-12-26T08:41:12.168Z,9.358619
2022-12-26T08:42:12.163Z,9.358563
2022-12-26T08:43:22.196Z,9.358608
2022-12-26T08:44:26.773Z,9.358662
2022-12-26T08:45:14.133Z,9.358678
2022-12-26T08:46:12.137Z,9.358671
2022-12-26T08:47:12.076Z,9.358647
2022-12-26T08:48:12.109Z,9.358667
2022-12-26T08:49:12.073Z,9.358718
2022-12-26T08:50:12.070Z,9.358749
2022-12-26T08:51:12.043Z,9.358728
2022-12-26T08:52:12.072Z,9.358661
2022-12-26T08:53:12.024Z,9.358645
2022-12-26T08:54:11.989Z,9.358791
2022-12-26T08:55:12.029Z,9.358818
2022-12-26T08:56:11.960Z,9.358727
2022-12-26T08:57:11.965Z,9.358661
2022-12-26T08:58:11.993Z,9.358685
2022-12-26T08:59:11.958Z,9.358718
2022-12-26T09:00:11.912Z,9.358702
2022-12-26T09:01:12.032Z,9.358622
2022-12-26T09:02:12.118Z,9.358637
2022-12-26T09:03:11.906Z,9.358621
2022-12-26T09:04:11.904Z,9.358590
2022-12-26T09:05:11.907Z,9.358592
2022-12-26T09:06:11.878Z,9.358673
2022-12-26T09:07:11.877Z,9.358629
2022-12-26T09:08:11.879Z,9.358649
2022-12-26T09:09:11.840Z,9.358628
2022-12-26T09:10:11.834Z,9.358665
2022-12-26T09:11:11.813Z,9.358634
2022-12-26T09:12:11.815Z,9.358604
2022-12-26T09:13:11.794Z,9.358621
2022-12-26T09:14:11.777Z,9.358649
2022-12-26T09:15:11.757Z,9.358626
2022-12-26T09:16:12.784Z,9.358624
2022-12-26T09:17:11.775Z,9.358714
2022-12-26T09:18:11.705Z,9.358644
2022-12-26T09:19:11.746Z,9.358681
2022-12-26T09:20:11.697Z,9.358707
2022-12-26T09:21:11.695Z,9.358715
2022-12-26T09:22:11.695Z,9.358790
2022-12-26T09:23:11.730Z,9.358766
2022-12-26T09:24:11.657Z,9.358636
2022-12-26T09:25:11.643Z,9.358622
2022-12-26T09:26:11.684Z,9.358625
2022-12-26T09:27:11.610Z,9.358545
2022-12-26T09:28:11.656Z,9.358521
2022-12-26T09:29:11.615Z,9.358587
2022-12-26T09:30:11.602Z,9.358614
2022-12-26T09:31:11.791Z,9.358613
2022-12-26T09:32:11.593Z,9.358619
2022-12-26T09:33:11.576Z,9.358599
2022-12-26T09:34:11.558Z,9.358605
2022-12-26T09:35:11.557Z,9.358653
2022-12-26T09:36:14.848Z,9.358657
2022-12-26T09:37:12.549Z,9.358616
2022-12-26T09:38:11.526Z,9.358560
2022-12-26T09:39:11.493Z,9.358597
2022-12-26T09:40:11.469Z,9.358513
2022-12-26T09:41:11.485Z,9.358518
2022-12-26T09:42:11.491Z,9.358540
2022-12-26T09:43:11.493Z,9.358538
2022-12-26T09:44:11.440Z,9.358512
2022-12-26T09:45:11.427Z,9.358467
2022-12-26T09:46:11.470Z,9.358471
2022-12-26T09:47:11.414Z,9.358524
2022-12-26T09:48:11.375Z,9.358578
2022-12-26T09:49:11.381Z,9.358500
2022-12-26T09:50:11.410Z,9.358483
2022-12-26T09:51:11.364Z,9.358512
2022-12-26T09:52:11.359Z,9.358557
2022-12-26T09:53:11.345Z,9.358561
2022-12-26T09:54:11.338Z,9.358545
2022-12-26T09:55:11.328Z,9.358524
2022-12-26T09:56:23.717Z,9.358531
2022-12-26T09:57:15.128Z,9.358559
2022-12-26T09:58:12.273Z,9.358596
2022-12-26T09:59:11.279Z,9.358567
2022-12-26T10:00:11.251Z,9.358543
2022-12-26T10:01:11.346Z,9.358557
2022-12-26T10:02:11.334Z,9.358561
2022-12-26T10:03:11.248Z,9.358522
2022-12-26T10:04:11.241Z,9.358562
2022-12-26T10:05:11.229Z,9.358581
2022-12-26T10:06:11.208Z,9.358563
2022-12-26T10:07:11.161Z,9.358539
2022-12-26T10:08:11.212Z,9.358546
2022-12-26T10:09:11.175Z,9.358592
2022-12-26T10:10:11.131Z,9.358591
2022-12-26T10:11:11.143Z,9.358603
2022-12-26T10:12:11.152Z,9.358579
2022-12-26T10:13:11.114Z,9.358547
2022-12-26T10:14:14.019Z,9.358598
2022-12-26T10:15:12.084Z,9.358627
2022-12-26T10:16:11.212Z,9.358612
2022-12-26T10:17:11.063Z,9.358556
2022-12-26T10:18:11.035Z,9.358577
2022-12-26T10:19:11.071Z,9.358640
2022-12-26T10:20:11.054Z,9.358610
2022-12-26T10:21:11.048Z,9.358605
2022-12-26T10:22:11.004Z,9.358636
2022-12-26T10:23:11.023Z,9.358639
2022-12-26T10:24:11.961Z,9.358644
2022-12-26T10:25:10.984Z,9.358644
2022-12-26T10:26:10.988Z,9.358669
2022-12-26T10:27:10.972Z,9.358681
2022-12-26T10:28:10.930Z,9.358678
2022-12-26T10:29:10.964Z,9.358609
2022-12-26T10:30:10.943Z,9.358588
2022-12-26T10:31:10.961Z,9.358561
2022-12-26T10:32:10.923Z,9.358555
2022-12-26T10:33:10.907Z,9.358593
2022-12-26T10:34:10.863Z,9.358670
2022-12-26T10:35:10.876Z,9.358662
2022-12-26T10:36:10.862Z,9.358641
2022-12-26T10:37:10.864Z,9.358631
2022-12-26T10:38:10.808Z,9.358623
2022-12-26T10:39:10.828Z,9.358624
2022-12-26T10:40:10.837Z,9.358587
2022-12-26T10:41:10.792Z,9.358554
2022-12-26T10:42:10.796Z,9.358626
2022-12-26T10:43:10.778Z,9.358610
2022-12-26T10:44:10.795Z,9.358606
2022-12-26T10:45:10.742Z,9.358592
2022-12-26T10:46:10.781Z,9.358613
2022-12-26T10:47:10.747Z,9.358602
2022-12-26T10:48:10.747Z,9.358565
2022-12-26T10:49:10.717Z,9.358559
2022-12-26T10:50:10.673Z,9.358532
2022-12-26T10:51:10.681Z,9.358570
2022-12-26T10:52:10.700Z,9.358645
2022-12-26T10:53:10.671Z,9.358592
2022-12-26T10:54:10.652Z,9.358562
2022-12-26T10:55:27.142Z,9.358604
2022-12-26T10:56:16.376Z,9.358670
2022-12-26T10:57:12.632Z,9.358577
2022-12-26T10:58:10.659Z,9.358595
2022-12-26T10:59:10.602Z,9.358578
2022-12-26T11:00:10.564Z,9.358549
2022-12-26T11:01:10.593Z,9.358582
2022-12-26T11:02:10.745Z,9.358602
2022-12-26T11:03:10.693Z,9.358680
2022-12-26T11:04:10.554Z,9.358676
2022-12-26T11:05:16.006Z,9.358636
2022-12-26T11:06:12.588Z,9.358632
2022-12-26T11:07:10.498Z,9.358581
2022-12-26T11:08:10.504Z,9.358558
2022-12-26T11:09:10.503Z,9.358599
2022-12-26T11:10:10.450Z,9.358568
2022-12-26T11:11:10.474Z,9.358615
2022-12-26T11:12:10.437Z,9.358666
2022-12-26T11:13:11.437Z,9.358618
2022-12-26T11:14:10.448Z,9.358635
2022-12-26T11:15:10.428Z,9.358657
2022-12-26T11:16:10.436Z,9.358784
2022-12-26T11:17:10.396Z,9.358720
2022-12-26T11:18:10.404Z,9.358659
2022-12-26T11:19:10.370Z,9.358658
2022-12-26T11:20:10.344Z,9.358706
2022-12-26T11:21:12.697Z,9.358542
2022-12-26T11:22:11.366Z,9.358539
2022-12-26T11:23:11.341Z,9.358440
2022-12-26T11:24:10.302Z,9.358592
2022-12-26T11:25:10.304Z,9.358601
2022-12-26T11:26:10.315Z,9.358640
2022-12-26T11:27:12.838Z,9.358630
2022-12-26T11:28:11.277Z,9.358609
2022-12-26T11:29:10.253Z,9.358630
2022-12-26T11:30:10.226Z,9.358545
2022-12-26T11:31:10.302Z,9.358548
2022-12-26T11:32:10.240Z,9.358521
2022-12-26T11:33:14.661Z,9.358467
2022-12-26T11:34:11.186Z,9.358510
2022-12-26T11:35:10.197Z,9.358512
2022-12-26T11:36:10.168Z,9.358528
2022-12-26T11:37:10.156Z,9.358535
2022-12-26T11:38:10.162Z,9.358570
2022-12-26T11:39:10.143Z,9.358595
2022-12-26T11:40:10.108Z,9.358570
2022-12-26T11:41:10.131Z,9.358513
2022-12-26T11:42:10.130Z,9.358525
2022-12-26T11:43:10.073Z,9.358583
2022-12-26T11:44:10.099Z,9.358532